This is the latest recevied weather packets stored in our database for station/object BMCB-35. If no packets are shown the sender has not sent any weather packets the latest 10 day(s).
| Time | Temp. | Humidity | Pressure | Rain* | Wind** | Luminosity | Snow |
|---|---|---|---|---|---|---|---|
| 1777398039 | 20.56° C | 29% | 1015.9 hPa | 0 mm | - | 56 W/m² | - |
| 1777396809 | 21.11° C | 29% | 1015.8 hPa | 0 mm | - | 143 W/m² | - |
| 1777395647 | 21.67° C | 29% | 1015.8 hPa | 0 mm | - | 144 W/m² | - |
| 1777395641 | 21.11° C | 29% | 1015.8 hPa | 0 mm | - | 221 W/m² | - |
| 1777393845 | 21.67° C | 30% | 1015.7 hPa | 0 mm | - | 264 W/m² | - |
| 1777392045 | 21.67° C | 30% | 1015.6 hPa | 0 mm | - | 311 W/m² | - |
| 1777390806 | 21.67° C | 30% | 1015.5 hPa | 0 mm | - | 222 W/m² | - |
| 1777390804 | 22.22° C | 29% | 1015.5 hPa | 0 mm | - | 439 W/m² | - |
| 1777387837 | 22.78° C | 30% | 1015.6 hPa | 0 mm | - | 578 W/m² | - |
| 1777384817 | 22.22° C | 31% | 1015.8 hPa | 0 mm | - | 576 W/m² | - |
| 1777380040 | 21.67° C | 31% | 1016.1 hPa | 0 mm | - | 607 W/m² | - |
| 1777377041 | 21.11° C | 33% | 1016.3 hPa | 0 mm | - | 677 W/m² | - |
| 1777375205 | 20° C | 34% | 1016.5 hPa | 0 mm | - | 746 W/m² | - |
| 1777372840 | 19.44° C | 36% | 1016.7 hPa | 0 mm | - | 684 W/m² | - |
| 1777369805 | 17.22° C | 41% | 1017.2 hPa | 0 mm | - | 636 W/m² | - |
| 1777368038 | 16.67° C | 43% | 1017.3 hPa | 0 mm | - | 616 W/m² | - |
| 1777365609 | 15° C | 46% | 1017.5 hPa | 0 mm | - | 542 W/m² | - |
| 1777363245 | 13.89° C | 47% | 1017.5 hPa | 0 mm | - | 468 W/m² | - |
| 1777362611 | 13.89° C | 48% | 1017.5 hPa | 0 mm | - | 443 W/m² | - |
| 1777362008 | 13.33° C | 50% | 1017.6 hPa | 0 mm | - | 391 W/m² | - |
| 1777361445 | 13.33° C | 50% | 1017.6 hPa | 0 mm | - | 391 W/m² | - |
| 1777361439 | 12.22° C | 52% | 1017.7 hPa | 0 mm | - | 306 W/m² | - |
| 1777358437 | 11.67° C | 54% | 1017.8 hPa | 0 mm | - | 223 W/m² | - |
| 1777357845 | 11.67° C | 54% | 1017.8 hPa | 0 mm | - | 223 W/m² | - |
| 1777355432 | 10.56° C | 55% | 1017.9 hPa | 0 mm | - | 81 W/m² | - |
* Rain latest hour (hover to see other rain measurements)
** Current wind speed in m/s (hover to see current wind gust speed)